TLSO2: Arkansas River, Tulsa, OK

                                SHEF ID:       TLSO2     Arkansas River at Tulsa, OK
STATION TYPE: Stream Gauge
Regulating: Stage = 15.00, Flow = 96489

PRECIP STAGE STAGE(2) RIV-FLOW WTR-TEMP DIS-OXY BAT-LOAD
in ft ft cfs F mg/l volt
Ccp-Rev Ccp-Rev Ccp-Rev Ccp-Rev Ccp-Rev Ccp-Rev Ccp-Rev
(America/Chicago)
02/07 00:00 0.00 4.58 ---- 6123 43.92 13.46 ----
02/07 01:00 0.00 4.61 ---- 6289 43.72 13.34 ----
02/07 02:00 0.00 4.55 ---- 5958 43.47 13.23 ----
02/07 03:00 0.00 4.53 ---- 5849 43.07 13.08 ----
02/07 04:00 0.00 4.58 ---- 6123 42.60 13.00 ----
02/07 05:00 0.00 4.51 ---- 5741 42.76 12.81 ----
02/07 06:00 0.00 4.55 ---- 5958 41.65 12.57 ----
02/07 07:00 0.00 4.51 ---- 5741 41.52 12.39 ----
02/07 08:00 0.00 4.47 ---- 5529 41.40 12.41 ----
02/07 09:00 0.00 4.49 ---- 5634 40.95 12.45 ----
02/07 10:00 0.00 4.49 ---- 5634 41.34 13.30 ----
02/07 11:00 0.00 4.67 ---- 6614 41.79 14.39 ----
02/07 12:00 0.00 4.71 ---- 6833 42.40 14.37 ----
02/07 13:00 0.00 4.64 ---- 6450 42.73 15.23 ----
02/07 14:00 0.00 4.62 ---- 6342 42.64 15.07 ----
02/07 15:00 0.00 4.64 ---- 6450 43.63 15.12 ----
02/07 16:00 0.00 4.56 ---- 6013 44.11 15.20 ----
02/07 17:00 0.00 4.56 ---- 6013 44.19 15.42 ----
02/07 18:00 0.00 4.52 ---- 5795 44.74 15.24 ----
02/07 19:00 0.00 4.56 ---- 6013 44.76 14.91 ----
02/07 20:00 0.00 4.51 ---- 5741 44.74 14.64 ----
02/07 21:00 0.00 4.45 ---- 5425 44.55 14.30 ----
02/07 22:00 0.00 4.48 ---- 5581 44.64 14.08 ----
02/07 23:00 0.00 4.57 ---- 6068 44.71 13.97 ----
Data processed at Sun 08Feb2026 05:48 GMT

NOTICE: If you are parsing this page

Please convert to using our Data API. Starting early 2026 we will be migrating to: https://water.usace.army.mil with modern pages rendered in JavaScript. When this migration completes you will no longer be able to scrape this page! CWMSDataAPI (CDA)

Timeseries IDs (TSIDs)

TSIDs used from left to right in the data table
TULA.Precip-Inc.Total.1Hour.1Hour.Ccp-Rev
TULA.Stage.Inst.1Hour.0.Ccp-Rev
TULA.Stage-Alt.Inst.1Hour.0.Ccp-Rev
TULA.Flow.Inst.1Hour.0.Ccp-Rev
TULA.Temp-Water.Inst.1Hour.0.Ccp-Rev
TULA.Conc-DO.Inst.1Hour.0.Ccp-Rev
TULA.Volt-Battery Load.Inst.1Hour.0.Ccp-Rev

                            

All information presented herein is the property of the government of the United States of America and may be revised or deleted at any time without prior notice. Dissemination of this information without the expressed written consent of the Public Affairs Office, Tulsa District U.S. Army Corps of Engineers is strictly prohibited. These data are gathered electronically and, as presented, have NOT undergone any form of quality control. These data are NOT guaranteed to be valid or correct.